Terminal Aerodrome Forecast
Issued by NWS

Home | Current Version | Previous Version | Text Only | Print | Product List | Glossary On
Versions: 1 2 3 4 5 6 7 8 9 10 11 12 13 14
000
FTUS45 KRIW 270300 RRA
TAFLND
TAF
KLND 270303Z 2703/2724 VRB04KT 5SM -SN SCT025 OVC040
      TEMPO 2703/2706 2SM -SN OVC025
     FM270600 VRB04KT P6SM SCT035 BKN050
     FM271000 VRB03KT P6SM VCFG SCT060
     FM271700 17005KT P6SM SCT070 SCT110=

USA.gov is the U.S. government's official web portal to all federal, state and local government web resources and services.